Terminal Aerodrome Forecast
Issued by NWS

Home | Current Version | Previous Version | Text Only | Print | Product List | Glossary On
Versions: 1 2 3 4 5 6 7 8 9 10 11 12 13 14 15 16 17 18 19 20 21 22 23 24 25 26 27 28 29 30 31 32 33 34
000
FTUS43 KDTX 261122
TAFPTK
TAF
KPTK 261122Z 2612/2712 31008KT P6SM OVC014
     FM261600 28008KT P6SM OVC022
     FM261800 27007KT P6SM BKN040
     FM270000 VRB04KT P6SM SCT045 OVC080
     FM270500 11005KT P6SM -SHRA SCT025 OVC035
     FM271000 10005KT P6SM OVC025=

USA.gov is the U.S. government's official web portal to all federal, state and local government web resources and services.